Time;durP1;ratioP1;P1;durP2;ratioP2;P2;SDS_P1;SDS_P2;PMS_P1;PMS_P2;Temp;Humidity;BMP_temperature;BMP_pressure;BME280_temperature;BME280_humidity;BME280_pressure;Samples;Min_cycle;Max_cycle;Signal;HPM_P1;HPM_P2
2022/07/14 00:01:45;;;;;;;5.12;4.47;;;;;;;20.98;68.13;100433.95;1780788;79;26471;-83
2022/07/14 00:04:11;;;;;;;8.05;5.08;;;;;;;20.92;68.14;100427.63;1789910;79;25895;-83
2022/07/14 00:06:38;;;;;;;6.22;4.35;;;;;;;20.86;68.22;100419.13;1798064;79;25327;-82
2022/07/14 00:09:04;;;;;;;7.37;4.20;;;;;;;20.83;68.32;100416.11;1793695;79;27701;-82
2022/07/14 00:11:31;;;;;;;6.78;4.60;;;;;;;20.81;68.38;100417.71;1789397;79;25303;-82
2022/07/14 00:13:58;;;;;;;13.10;5.20;;;;;;;20.80;68.41;100416.09;1789202;79;25818;-82
2022/07/14 00:16:26;;;;;;;6.62;4.78;;;;;;;20.77;68.48;100420.67;1781820;79;25857;-82
2022/07/14 00:18:52;;;;;;;6.50;4.33;;;;;;;20.75;68.53;100421.47;1784354;79;25905;-83
2022/07/14 00:21:20;;;;;;;7.40;4.60;;;;;;;20.71;68.48;100419.81;1789080;79;26266;-83
2022/07/14 00:23:48;;;;;;;7.25;4.12;;;;;;;20.68;68.58;100412.15;1788834;79;25926;-81
2022/07/14 00:26:14;;;;;;;5.70;4.22;;;;;;;20.65;68.64;100417.30;1794335;79;25930;-83
2022/07/14 00:28:41;;;;;;;7.35;4.87;;;;;;;20.63;68.72;100416.73;1793548;79;25994;-83
2022/07/14 00:31:12;;;;;;;4.97;4.17;;;;;;;20.59;68.86;100408.80;1758036;79;25918;-82
2022/07/14 00:33:40;;;;;;;7.15;4.70;;;;;;;20.55;68.85;100404.95;1785590;79;27501;-83
2022/07/14 00:36:08;;;;;;;6.03;4.90;;;;;;;20.49;69.00;100409.50;1790886;79;25922;-82
2022/07/14 00:38:35;;;;;;;6.60;5.10;;;;;;;20.44;69.13;100412.72;1791515;79;26387;-82
2022/07/14 00:41:01;;;;;;;7.20;5.03;;;;;;;20.40;69.26;100413.75;1790933;79;25840;-83
2022/07/14 00:43:28;;;;;;;6.65;5.55;;;;;;;20.36;69.28;100417.27;1789702;79;25911;-83
2022/07/14 00:45:54;;;;;;;5.62;4.92;;;;;;;20.32;69.46;100412.85;1791982;79;27428;-82
2022/07/14 00:48:22;;;;;;;10.43;5.67;;;;;;;20.30;69.66;100416.36;1787574;79;25935;-83
2022/07/14 00:50:49;;;;;;;5.80;5.03;;;;;;;20.24;69.60;100418.75;1791258;79;26202;-83
2022/07/14 00:53:15;;;;;;;6.97;5.05;;;;;;;20.18;69.76;100417.55;1787783;79;25966;-83
2022/07/14 00:55:43;;;;;;;5.55;4.83;;;;;;;20.16;69.88;100426.50;1792560;79;25832;-82
2022/07/14 00:58:11;;;;;;;6.25;5.00;;;;;;;20.11;69.91;100425.89;1787985;79;27448;-82
2022/07/14 01:00:38;;;;;;;8.45;6.55;;;;;;;20.09;69.94;100425.86;1788804;79;25334;-83
2022/07/14 01:03:08;;;;;;;11.18;6.58;;;;;;;20.05;70.11;100422.83;1784887;79;25810;-82
2022/07/14 01:05:34;;;;;;;10.98;9.88;;;;;;;20.01;70.14;100417.62;1789476;79;25886;-82
2022/07/14 01:08:00;;;;;;;10.25;9.25;;;;;;;19.97;70.20;100419.20;1787345;79;25766;-82
2022/07/14 01:10:27;;;;;;;10.82;9.70;;;;;;;19.92;70.41;100419.13;1777317;79;27139;-83
2022/07/14 01:12:56;;;;;;;12.40;11.20;;;;;;;19.86;70.50;100409.27;1787475;79;25818;-82
2022/07/14 01:15:23;;;;;;;11.10;9.23;;;;;;;19.82;70.66;100418.44;1787652;79;25811;-81
2022/07/14 01:17:51;;;;;;;10.63;9.18;;;;;;;19.79;70.72;100416.77;1788505;79;25891;-83
2022/07/14 01:20:19;;;;;;;8.83;6.58;;;;;;;19.75;70.90;100423.78;1790328;79;25764;-82
2022/07/14 01:22:47;;;;;;;9.73;6.03;;;;;;;19.73;71.00;100422.69;1786961;79;27455;-82
2022/07/14 01:25:16;;;;;;;10.58;5.65;;;;;;;19.71;71.12;100417.21;1788540;79;25310;-83
2022/07/14 01:27:43;;;;;;;9.08;8.18;;;;;;;19.67;71.17;100416.90;1765519;79;25811;-83
2022/07/14 01:30:11;;;;;;;9.10;6.00;;;;;;;19.67;71.30;100415.54;1789488;79;25794;-83
2022/07/14 01:32:37;;;;;;;10.53;7.00;;;;;;;19.66;71.37;100412.52;1788163;79;25932;-82
2022/07/14 01:35:05;;;;;;;10.15;8.00;;;;;;;19.60;71.41;100413.53;1787881;79;27451;-83
2022/07/14 01:37:32;;;;;;;8.15;7.15;;;;;;;19.57;71.56;100413.19;1784272;79;25503;-83
2022/07/14 01:40:01;;;;;;;9.38;5.90;;;;;;;19.53;71.66;100418.31;1786439;79;25497;-82
2022/07/14 01:42:27;;;;;;;8.68;5.95;;;;;;;19.51;71.81;100414.19;1793451;79;25862;-82
2022/07/14 01:44:54;;;;;;;5.40;4.90;;;;;;;19.48;71.87;100415.50;1788633;79;25761;-82
2022/07/14 01:47:20;;;;;;;8.58;5.12;;;;;;;19.43;72.06;100424.13;1793329;79;27459;-82
2022/07/14 01:49:47;;;;;;;7.12;5.55;;;;;;;19.37;72.20;100419.69;1785042;79;25947;-82
2022/07/14 01:52:13;;;;;;;9.48;5.25;;;;;;;19.36;72.26;100417.50;1780354;79;25807;-82
2022/07/14 01:54:40;;;;;;;8.35;4.97;;;;;;;19.37;72.31;100415.63;1789259;79;25766;-82
2022/07/14 01:57:08;;;;;;;6.10;5.28;;;;;;;19.38;72.27;100415.89;1785794;79;25992;-82
2022/07/14 01:59:36;;;;;;;5.60;5.03;;;;;;;19.37;72.42;100415.63;1764890;79;28590;-82
2022/07/14 02:02:03;;;;;;;11.22;6.03;;;;;;;19.36;72.33;100416.67;1790142;79;25937;-83
2022/07/14 02:04:30;;;;;;;8.95;5.00;;;;;;;19.30;72.28;100417.11;1788238;79;25920;-83
2022/07/14 02:06:56;;;;;;;7.12;5.45;;;;;;;19.28;72.36;100419.78;1785203;79;26736;-82
2022/07/14 02:12:25;;;;;;;7.87;5.50;;;;;;;19.19;72.42;100426.16;1729500;81;27528;-83
2022/07/14 02:14:53;;;;;;;6.80;5.62;;;;;;;19.18;72.59;100423.17;1732284;82;25962;-83
2022/07/14 02:17:19;;;;;;;8.55;5.55;;;;;;;19.16;72.64;100418.53;1751989;79;25907;-83
2022/07/14 02:19:45;;;;;;;7.95;5.35;;;;;;;19.12;72.60;100422.78;1797070;79;26285;-83
2022/07/14 02:22:12;;;;;;;7.37;5.55;;;;;;;19.09;72.72;100430.91;1790576;79;25936;-82
2022/07/14 02:24:38;;;;;;;8.18;5.58;;;;;;;19.03;72.86;100425.64;1797175;79;27429;-83
2022/07/14 02:27:04;;;;;;;6.50;5.50;;;;;;;18.98;72.92;100429.61;1797422;79;25783;-82
2022/07/14 02:29:31;;;;;;;9.50;6.10;;;;;;;18.97;73.16;100434.21;1797470;79;26464;-82
2022/07/14 02:31:57;;;;;;;12.60;8.38;;;;;;;18.95;73.34;100436.34;1798255;79;26566;-83
2022/07/14 02:34:23;;;;;;;10.28;7.22;;;;;;;18.90;73.45;100434.09;1788739;79;25330;-82
2022/07/14 02:36:52;;;;;;;9.03;6.40;;;;;;;18.84;73.70;100432.36;1787439;79;28289;-82
2022/07/14 02:39:18;;;;;;;11.20;6.12;;;;;;;18.82;73.81;100432.59;1785184;79;25941;-83
2022/07/14 02:41:44;;;;;;;9.30;6.08;;;;;;;18.80;73.87;100429.83;1788426;79;25775;-83
2022/07/14 02:44:12;;;;;;;7.28;6.25;;;;;;;18.80;74.01;100430.66;1797212;79;25778;-83
2022/07/14 02:46:39;;;;;;;9.68;6.30;;;;;;;18.82;74.17;100435.86;1790997;79;25389;-81
2022/07/14 02:49:06;;;;;;;15.48;7.28;;;;;;;18.81;74.26;100435.55;1788843;79;27444;-82
2022/07/14 02:51:34;;;;;;;6.53;5.65;;;;;;;18.80;74.29;100430.66;1788731;79;25812;-82
2022/07/14 02:54:00;;;;;;;8.63;6.05;;;;;;;18.80;74.36;100437.96;1781092;79;25858;-82
2022/07/14 02:56:28;;;;;;;8.90;6.08;;;;;;;18.76;74.47;100440.87;1767611;79;25760;-83
2022/07/14 02:58:54;;;;;;;8.18;6.10;;;;;;;18.75;74.61;100444.67;1789281;79;25981;-82
2022/07/14 03:01:22;;;;;;;8.68;5.83;;;;;;;18.74;74.83;100443.84;1769680;79;27446;-82
2022/07/14 03:03:48;;;;;;;7.42;6.35;;;;;;;18.75;74.95;100444.16;1764854;79;25924;-82
2022/07/14 03:06:19;;;;;;;9.93;5.87;;;;;;;18.78;75.06;100447.72;1789782;79;25908;-82
2022/07/14 03:08:47;;;;;;;8.98;5.72;;;;;;;18.82;75.37;100448.07;1784350;79;25826;-83
2022/07/14 03:11:15;;;;;;;7.75;5.67;;;;;;;18.82;75.25;100450.78;1764115;79;25919;-83
2022/07/14 03:13:42;;;;;;;9.08;6.10;;;;;;;18.83;75.16;100453.77;1789911;79;28333;-82
2022/07/14 03:16:10;;;;;;;7.35;5.62;;;;;;;18.85;75.22;100453.82;1789597;79;25931;-82
2022/07/14 03:18:39;;;;;;;7.30;5.87;;;;;;;18.87;75.19;100448.97;1788517;79;25691;-82
2022/07/14 03:21:09;;;;;;;5.90;5.28;;;;;;;18.90;75.24;100454.45;1766669;79;25860;-83
2022/07/14 03:23:37;;;;;;;6.60;5.92;;;;;;;18.92;75.20;100457.22;1767988;79;25898;-83
2022/07/14 03:26:06;;;;;;;6.60;5.67;;;;;;;18.93;75.22;100460.73;1789647;79;27981;-82
2022/07/14 03:28:32;;;;;;;10.90;5.72;;;;;;;18.93;75.23;100456.66;1792848;79;25802;-82
2022/07/14 03:30:59;;;;;;;11.05;5.75;;;;;;;18.95;75.25;100446.38;1792100;79;25939;-82
2022/07/14 03:33:26;;;;;;;6.45;5.53;;;;;;;18.97;75.26;100449.67;1793001;79;26427;-82
2022/07/14 03:35:53;;;;;;;7.22;5.35;;;;;;;19.01;75.21;100450.85;1766835;79;25930;-81
2022/07/14 03:38:19;;;;;;;7.72;5.78;;;;;;;19.04;75.22;100455.77;1785171;79;28290;-82
2022/07/14 03:40:47;;;;;;;8.18;6.10;;;;;;;19.06;75.10;100468.04;1791654;79;25808;-82
2022/07/14 03:43:14;;;;;;;6.60;5.70;;;;;;;19.09;75.08;100460.77;1796424;78;25902;-83
2022/07/14 03:45:40;;;;;;;10.98;5.42;;;;;;;19.11;75.09;100454.56;1804973;78;25848;-83
2022/07/14 03:48:08;;;;;;;7.28;5.17;;;;;;;19.15;75.11;100461.67;1800410;78;25913;-82
2022/07/14 03:50:37;;;;;;;6.22;5.37;;;;;;;19.20;75.20;100464.48;1794233;78;28738;-82
2022/07/14 03:53:04;;;;;;;9.70;5.72;;;;;;;19.22;75.19;100465.86;1799895;78;26448;-82
2022/07/14 03:55:32;;;;;;;7.85;6.30;;;;;;;19.28;75.32;100453.73;1795749;78;25995;-82
2022/07/14 03:58:00;;;;;;;7.47;5.83;;;;;;;19.30;75.31;100455.66;1795884;78;25984;-82
2022/07/14 04:00:27;;;;;;;7.95;5.95;;;;;;;19.32;75.21;100455.70;1801880;78;25554;-83
2022/07/14 04:02:54;;;;;;;10.00;6.12;;;;;;;19.33;75.15;100465.52;1789766;78;28275;-82
2022/07/14 04:05:25;;;;;;;10.25;5.70;;;;;;;19.34;75.04;100454.95;1798250;78;25877;-83
2022/07/14 04:07:53;;;;;;;9.53;6.08;;;;;;;19.37;75.15;100454.48;1805233;78;26079;-83
2022/07/14 04:10:21;;;;;;;10.03;6.30;;;;;;;19.44;75.30;100451.59;1796461;78;25808;-83
2022/07/14 04:12:48;;;;;;;9.78;6.87;;;;;;;19.50;75.27;100444.63;1798556;78;25820;-82
2022/07/14 04:15:14;;;;;;;8.15;5.67;;;;;;;19.56;75.20;100444.16;1798913;78;28549;-82
2022/07/14 04:17:40;;;;;;;6.72;5.60;;;;;;;19.60;75.19;100446.13;1795410;78;25782;-82
2022/07/14 04:20:09;;;;;;;6.28;5.67;;;;;;;19.68;75.09;100446.23;1800261;78;25960;-82
2022/07/14 04:22:37;;;;;;;9.13;4.67;;;;;;;19.76;75.21;100445.27;1795633;78;25876;-83
2022/07/14 04:25:05;;;;;;;7.28;5.83;;;;;;;19.86;75.08;100452.76;1797097;78;25762;-81
2022/07/14 04:27:35;;;;;;;8.20;5.12;;;;;;;19.89;75.22;100444.91;1792513;79;27516;-81
2022/07/14 04:30:01;;;;;;;8.85;6.12;;;;;;;19.96;74.94;100446.09;1795193;78;25976;-82
2022/07/14 04:32:28;;;;;;;6.17;4.97;;;;;;;20.00;74.73;100446.70;1792955;78;25894;-82
2022/07/14 04:34:54;;;;;;;6.87;5.80;;;;;;;20.09;74.75;100450.33;1794785;78;25801;-82
2022/07/14 04:37:20;;;;;;;6.40;5.60;;;;;;;20.14;74.50;100453.13;1795351;78;25917;-83
2022/07/14 04:39:47;;;;;;;7.87;5.65;;;;;;;20.21;74.66;100455.96;1797633;78;28266;-82
2022/07/14 04:42:14;;;;;;;7.90;5.47;;;;;;;20.29;74.48;100462.88;1803169;78;25743;-82
2022/07/14 04:44:42;;;;;;;7.60;6.00;;;;;;;20.34;74.22;100453.39;1792898;78;26247;-82
2022/07/14 04:47:09;;;;;;;10.28;6.12;;;;;;;20.39;74.15;100454.30;1790324;78;25837;-83
2022/07/14 04:52:21;;;;;;;8.30;5.03;;;;;;;20.53;73.88;100456.89;1789921;78;27454;-82
2022/07/14 04:54:50;;;;;;;7.72;5.72;;;;;;;20.53;73.83;100459.61;1795203;78;26617;-82
2022/07/14 04:57:19;;;;;;;6.67;5.17;;;;;;;20.59;73.58;100464.03;1787136;78;25875;-82
2022/07/14 04:59:47;;;;;;;6.58;5.00;;;;;;;20.63;73.64;100462.47;1792161;78;27015;-82
2022/07/14 05:02:15;;;;;;;6.62;5.12;;;;;;;20.66;73.73;100467.38;1797721;79;25943;-82
2022/07/14 05:04:41;;;;;;;4.85;4.42;;;;;;;20.67;73.96;100468.22;1800180;78;27443;-82
2022/07/14 05:07:08;;;;;;;9.75;5.35;;;;;;;20.69;74.26;100468.78;1798118;78;25818;-83
2022/07/14 05:09:36;;;;;;;5.33;4.85;;;;;;;20.70;73.87;100473.12;1791697;79;25810;-83
2022/07/14 05:12:05;;;;;;;9.28;5.40;;;;;;;20.73;74.04;100473.45;1794093;79;26148;-82
2022/07/14 05:14:34;;;;;;;6.72;4.80;;;;;;;20.78;74.34;100465.06;1791806;79;26101;-82
2022/07/14 05:17:02;;;;;;;5.87;4.92;;;;;;;20.79;73.91;100470.23;1790084;79;27613;-83
2022/07/14 05:19:29;;;;;;;6.45;5.20;;;;;;;20.80;73.69;100473.26;1790261;79;25944;-83
2022/07/14 05:21:57;;;;;;;5.80;5.25;;;;;;;20.81;73.93;100473.52;1796160;79;25370;-82
2022/07/14 05:24:24;;;;;;;5.58;4.80;;;;;;;20.79;73.79;100478.41;1785977;79;25932;-82
2022/07/14 05:26:50;;;;;;;6.12;4.53;;;;;;;20.76;73.20;100468.84;1795300;79;25961;-83
2022/07/14 05:29:17;;;;;;;5.95;3.95;;;;;;;20.78;72.93;100478.94;1796913;79;27431;-84
2022/07/14 05:31:44;;;;;;;5.45;3.95;;;;;;;20.78;72.49;100487.10;1786401;79;26048;-83
2022/07/14 05:34:11;;;;;;;5.58;4.22;;;;;;;20.77;72.21;100488.73;1783352;79;25931;-82
2022/07/14 05:36:37;;;;;;;5.58;4.30;;;;;;;20.74;72.41;100485.97;1786234;79;25819;-83
2022/07/14 05:39:03;;;;;;;4.58;4.05;;;;;;;20.75;72.39;100479.47;1796908;79;25845;-83
2022/07/14 05:41:30;;;;;;;5.85;4.25;;;;;;;20.74;72.54;100487.34;1796905;79;27531;-83
2022/07/14 05:43:56;;;;;;;4.53;4.05;;;;;;;20.78;72.80;100484.94;1789817;79;25920;-82
2022/07/14 05:46:23;;;;;;;6.37;4.00;;;;;;;20.88;72.99;100491.02;1789204;79;25364;-83
2022/07/14 05:48:49;;;;;;;5.00;3.77;;;;;;;20.94;73.18;100491.34;1796919;78;26638;-82
2022/07/14 05:51:18;;;;;;;10.68;4.58;;;;;;;21.02;72.36;100490.34;1799695;78;25908;-82
2022/07/14 05:53:47;;;;;;;5.47;3.47;;;;;;;21.04;72.08;100490.94;1799064;78;28455;-83
2022/07/14 05:56:17;;;;;;;4.85;3.42;;;;;;;21.09;71.78;100491.00;1795591;78;25901;-82
2022/07/14 05:58:46;;;;;;;4.83;3.42;;;;;;;21.11;71.85;100492.09;1789155;79;25914;-83
2022/07/14 06:01:14;;;;;;;5.90;2.92;;;;;;;21.15;72.19;100494.05;1788279;79;26298;-83
2022/07/14 06:03:42;;;;;;;4.83;3.37;;;;;;;21.23;72.01;100494.13;1789792;79;25864;-84
2022/07/14 06:06:09;;;;;;;6.17;3.08;;;;;;;21.31;71.39;100493.65;1787134;79;28271;-83
2022/07/14 06:08:37;;;;;;;7.28;3.45;;;;;;;21.36;71.46;100483.60;1790867;79;26157;-82
2022/07/14 06:11:04;;;;;;;5.95;3.70;;;;;;;21.42;71.23;100478.50;1788240;79;25780;-83
2022/07/14 06:13:32;;;;;;;3.30;2.83;;;;;;;21.50;71.41;100475.81;1791046;79;25784;-83
2022/07/14 06:15:59;;;;;;;3.00;2.45;;;;;;;21.61;70.79;100478.91;1765445;81;25924;-82
2022/07/14 06:18:27;;;;;;;4.80;2.70;;;;;;;21.65;70.36;100477.30;1784801;79;27444;-83
2022/07/14 06:20:55;;;;;;;4.08;2.83;;;;;;;21.67;70.66;100480.58;1799521;78;25885;-83
2022/07/14 06:23:23;;;;;;;4.33;2.62;;;;;;;21.68;69.35;100482.77;1795965;78;25791;-82
2022/07/14 06:25:51;;;;;;;4.65;2.83;;;;;;;21.69;69.90;100483.03;1796026;78;26628;-83
2022/07/14 06:28:19;;;;;;;3.98;2.87;;;;;;;21.72;69.88;100494.25;1794300;78;25809;-82
2022/07/14 06:30:45;;;;;;;5.87;2.60;;;;;;;21.82;69.62;100497.58;1798083;78;28315;-82
2022/07/14 06:33:12;;;;;;;2.80;2.55;;;;;;;21.86;69.46;100496.83;1794603;78;25841;-82
2022/07/14 06:35:40;;;;;;;4.87;2.72;;;;;;;21.90;69.49;100502.03;1791355;79;25883;-82
2022/07/14 06:38:07;;;;;;;3.42;2.60;;;;;;;21.93;68.97;100496.06;1790445;78;26586;-83
2022/07/14 06:40:34;;;;;;;4.40;2.37;;;;;;;22.01;69.08;100494.73;1798320;78;25332;-82
2022/07/14 06:43:00;;;;;;;3.83;2.67;;;;;;;22.06;68.60;100495.59;1793553;78;28259;-82
2022/07/14 06:45:39;;;;;;;2.87;2.30;;;;;;;22.08;68.01;100496.15;1791131;78;25822;-83
2022/07/14 06:48:07;;;;;;;2.62;2.42;;;;;;;22.07;66.53;100492.30;1796096;78;25918;-82
2022/07/14 06:50:34;;;;;;;4.67;2.37;;;;;;;22.06;67.41;100490.67;1793084;79;26925;-81
2022/07/14 06:53:01;;;;;;;4.97;2.17;;;;;;;22.10;67.64;100487.69;1793629;78;25334;-81
2022/07/14 06:55:27;;;;;;;6.37;2.40;;;;;;;22.12;67.61;100489.61;1787558;78;27419;-83
2022/07/14 06:57:53;;;;;;;5.42;2.25;;;;;;;22.17;67.54;100485.55;1789399;78;25865;-83
2022/07/14 07:00:20;;;;;;;4.70;2.10;;;;;;;22.30;66.36;100488.34;1798924;78;25885;-83
2022/07/14 07:02:48;;;;;;;4.40;2.00;;;;;;;22.38;66.05;100487.28;1797202;78;25881;-82
2022/07/14 07:08:00;;;;;;;6.83;2.85;;;;;;;22.46;65.66;100485.41;1796957;78;27516;-84
2022/07/14 07:10:27;;;;;;;4.60;2.15;;;;;;;22.52;66.54;100481.59;1801735;78;25862;-82
2022/07/14 07:12:54;;;;;;;6.47;1.82;;;;;;;22.61;66.44;100475.10;1796181;78;25789;-83
2022/07/14 07:15:21;;;;;;;6.17;2.30;;;;;;;22.65;64.56;100481.13;1798264;78;26324;-83
2022/07/14 07:17:48;;;;;;;4.12;1.70;;;;;;;22.65;64.34;100477.56;1791054;78;26255;-82
2022/07/14 07:20:15;;;;;;;4.12;1.57;;;;;;;22.67;64.68;100480.84;1794830;78;28377;-82
2022/07/14 07:22:41;;;;;;;4.35;2.10;;;;;;;22.65;63.70;100485.22;1792376;78;25777;-82
2022/07/14 07:25:09;;;;;;;4.00;1.98;;;;;;;22.59;64.01;100486.84;1801178;78;25842;-82
2022/07/14 07:27:35;;;;;;;2.35;1.60;;;;;;;22.59;64.25;100484.94;1798037;78;25870;-83
2022/07/14 07:30:03;;;;;;;6.03;1.90;;;;;;;22.68;64.59;100477.87;1798190;78;25816;-82
2022/07/14 07:32:29;;;;;;;4.12;2.00;;;;;;;22.73;64.77;100483.33;1791802;78;27430;-82
2022/07/14 07:34:56;;;;;;;3.98;1.82;;;;;;;22.71;64.04;100477.88;1793179;78;26387;-82
2022/07/14 07:37:24;;;;;;;5.25;2.10;;;;;;;22.80;64.22;100484.44;1795320;78;25998;-83
2022/07/14 07:39:51;;;;;;;3.90;1.72;;;;;;;22.84;63.41;100480.07;1797344;78;25861;-81
2022/07/14 07:42:18;;;;;;;4.00;1.52;;;;;;;22.91;61.57;100479.28;1794275;78;25812;-82
2022/07/14 07:44:44;;;;;;;2.98;1.85;;;;;;;22.91;61.92;100482.84;1798017;79;27454;-82
2022/07/14 07:47:10;;;;;;;4.22;1.92;;;;;;;22.88;61.42;100483.94;1797734;79;25796;-83
2022/07/14 07:49:36;;;;;;;2.72;1.85;;;;;;;22.95;61.07;100485.84;1795977;78;26525;-84
2022/07/14 07:52:04;;;;;;;4.28;2.10;;;;;;;23.07;61.53;100482.33;1797994;78;25875;-82
2022/07/14 07:54:30;;;;;;;5.08;1.70;;;;;;;23.21;60.95;100484.78;1797454;78;25910;-83
2022/07/14 07:56:58;;;;;;;2.62;1.60;;;;;;;23.23;59.88;100487.23;1795061;79;27415;-84
2022/07/14 07:59:24;;;;;;;3.92;1.67;;;;;;;23.14;57.76;100487.53;1796872;78;25884;-84
2022/07/14 08:01:50;;;;;;;3.45;1.85;;;;;;;23.09;59.86;100483.41;1791623;78;25739;-82
2022/07/14 08:04:17;;;;;;;5.67;2.12;;;;;;;23.14;58.90;100484.22;1795176;78;25821;-82
2022/07/14 08:06:43;;;;;;;6.72;2.15;;;;;;;23.19;59.88;100484.78;1791868;79;25763;-82
2022/07/14 08:09:13;;;;;;;6.22;1.95;;;;;;;23.25;58.76;100495.98;1794024;79;28274;-82
2022/07/14 08:11:41;;;;;;;4.30;1.98;;;;;;;23.26;58.09;100486.70;1793553;79;25979;-83
2022/07/14 08:14:47;;;;;;;4.10;2.40;;;;;;;23.30;57.76;100492.72;1793583;79;25933;-82
2022/07/14 08:16:38;;;;;;;2.85;1.92;;;;;;;23.34;57.23;100497.94;1786914;79;34080;-81
2022/07/14 08:19:04;;;;;;;2.05;1.30;;;;;;;23.40;56.48;100505.05;1793290;78;25550;-82
2022/07/14 08:21:30;;;;;;;3.05;2.05;;;;;;;23.45;54.49;100494.13;1789102;79;27505;-83
2022/07/14 08:23:57;;;;;;;4.55;2.08;;;;;;;23.45;55.40;100496.86;1791275;79;26008;-83
2022/07/14 08:26:23;;;;;;;4.67;1.90;;;;;;;23.48;55.24;100490.03;1786803;79;26558;-82
2022/07/14 08:28:49;;;;;;;4.75;2.22;;;;;;;23.46;55.55;100495.75;1783742;79;25767;-82
2022/07/14 08:31:16;;;;;;;7.67;1.98;;;;;;;23.50;55.38;100497.41;1793372;79;25996;-82
2022/07/14 08:33:42;;;;;;;6.45;1.85;;;;;;;23.56;55.80;100500.41;1798216;79;27439;-82
2022/07/14 08:36:08;;;;;;;2.55;1.25;;;;;;;23.55;55.32;100496.02;1792913;79;25350;-82
2022/07/14 08:38:34;;;;;;;3.72;1.60;;;;;;;23.59;53.73;100486.99;1791503;79;25802;-81
2022/07/14 08:41:01;;;;;;;3.52;1.60;;;;;;;23.56;53.76;100488.93;1789490;79;26573;-82
2022/07/14 08:43:28;;;;;;;2.37;1.40;;;;;;;23.59;54.42;100497.94;1792328;79;25313;-81
2022/07/14 08:45:55;;;;;;;4.05;1.60;;;;;;;23.66;53.91;100484.81;1789200;79;27449;-81
2022/07/14 08:48:21;;;;;;;3.70;1.52;;;;;;;23.73;53.72;100498.20;1791838;79;25781;-82
2022/07/14 08:50:48;;;;;;;2.60;1.52;;;;;;;23.77;52.93;100497.92;1787721;79;25877;-83
2022/07/14 08:53:14;;;;;;;2.05;1.30;;;;;;;23.84;53.12;100488.89;1794542;79;26713;-83
2022/07/14 08:55:41;;;;;;;2.33;1.27;;;;;;;23.78;52.74;100491.91;1783731;79;25915;-83
2022/07/14 08:58:07;;;;;;;9.68;2.05;;;;;;;23.59;52.33;100495.20;1796540;79;27423;-82
2022/07/14 09:00:33;;;;;;;5.65;2.60;;;;;;;23.62;53.80;100496.03;1794614;78;25813;-81
2022/07/14 09:03:00;;;;;;;4.72;1.50;;;;;;;23.78;51.80;100499.55;1798017;78;25841;-82
2022/07/14 09:05:26;;;;;;;3.92;1.12;;;;;;;23.87;51.16;100497.07;1795994;79;25819;-83
2022/07/14 09:07:57;;;;;;;3.85;1.52;;;;;;;23.94;51.59;100486.12;1785192;78;25773;-81
2022/07/14 09:10:27;;;;;;;3.22;1.55;;;;;;;23.99;50.16;100497.08;1777429;79;27500;-83
2022/07/14 09:13:17;;;;;;;6.17;2.00;;;;;;;24.05;50.86;100500.63;1782082;79;25735;-82
2022/07/14 09:15:44;;;;;;;5.83;1.80;;;;;;;24.10;50.44;100502.00;1790397;79;25848;-83
2022/07/14 09:18:24;;;;;;;1.75;1.07;;;;;;;24.10;50.32;100489.11;1790025;79;25928;-82
2022/07/14 09:20:52;;;;;;;3.08;1.17;;;;;;;24.17;46.97;100494.30;1786732;79;25846;-83
2022/07/14 09:23:31;;;;;;;3.33;1.98;;;;;;;24.19;47.34;100488.81;1790186;79;27441;-83
2022/07/14 09:26:16;;;;;;;2.83;1.52;;;;;;;24.19;47.74;100489.36;1761600;79;25877;-83
2022/07/14 09:28:46;;;;;;;2.08;1.10;;;;;;;24.21;46.65;100489.36;1794924;79;25813;-82
2022/07/14 09:31:27;;;;;;;3.08;1.32;;;;;;;24.29;46.15;100489.34;1790269;79;25834;-82
2022/07/14 09:33:56;;;;;;;;;;;;;;;24.30;46.50;100494.53;1783906;79;25742;-81
2022/07/14 09:36:28;;;;;;;3.67;1.20;;;;;;;24.32;43.80;100486.03;1789662;78;27423;-83
2022/07/14 09:39:09;;;;;;;2.65;0.90;;;;;;;24.27;43.52;100484.70;1796496;78;26655;-82
2022/07/14 09:41:53;;;;;;;3.80;1.30;;;;;;;24.28;43.49;100483.59;1795035;79;25954;-84
2022/07/14 09:44:21;;;;;;;3.02;1.05;;;;;;;24.33;42.77;100486.31;1798623;78;25825;-81
2022/07/14 09:46:56;;;;;;;3.60;1.00;;;;;;;24.31;40.81;100488.52;1788871;79;25691;-81
2022/07/14 09:49:30;;;;;;;4.08;1.02;;;;;;;24.32;40.13;100478.64;1790848;78;27704;-82
2022/07/14 09:52:05;;;;;;;4.20;1.20;;;;;;;24.36;41.48;100476.98;1796101;79;25718;-82
2022/07/14 09:54:47;;;;;;;2.15;1.00;;;;;;;24.45;40.36;100482.70;1793184;79;25866;-82
2022/07/14 09:57:27;;;;;;;4.65;1.12;;;;;;;24.42;40.58;100480.53;1793646;79;25869;-82
2022/07/14 10:00:11;;;;;;;2.35;0.88;;;;;;;24.38;40.53;100477.52;1797406;79;26685;-83
2022/07/14 10:02:41;;;;;;;1.72;1.17;;;;;;;24.39;39.02;100467.39;1793184;79;28225;-82
2022/07/14 10:05:09;;;;;;;3.27;1.03;;;;;;;24.42;39.77;100486.02;1788508;77;26771;-82
2022/07/14 10:10:46;;;;;;;5.95;0.90;;;;;;;24.52;39.57;100481.84;1770576;78;26535;-82
2022/07/14 10:19:11;;;;;;;3.12;0.98;;;;;;;24.33;37.79;100480.30;1757513;78;26654;-82
2022/07/14 10:21:38;;;;;;;4.62;1.02;;;;;;;24.27;39.14;100476.48;1761018;80;26397;-83
2022/07/14 10:24:06;;;;;;;2.83;0.85;;;;;;;24.30;40.30;100469.06;1756484;80;25759;-81
2022/07/14 10:26:35;;;;;;;1.22;0.72;;;;;;;24.35;41.08;100478.64;1754772;80;26174;-82
2022/07/14 10:29:07;;;;;;;5.30;1.30;;;;;;;24.43;40.15;100478.05;1772164;80;28312;-82
2022/07/14 10:31:42;;;;;;;3.40;1.00;;;;;;;24.51;39.43;100476.09;1710893;83;25743;-81
2022/07/14 10:34:36;;;;;;;3.65;1.00;;;;;;;24.50;37.70;100482.14;1772492;80;25778;-81
2022/07/14 10:40:38;;;;;;;3.22;1.00;;;;;;;24.45;37.40;100485.44;1723120;78;26788;-81
2022/07/14 10:43:13;;;;;;;3.83;0.93;;;;;;;24.36;38.58;100479.72;1700432;82;27536;-82
2022/07/14 10:45:50;;;;;;;5.75;1.50;;;;;;;24.34;40.31;100483.29;1696915;83;25695;-83
2022/07/14 10:48:36;;;;;;;9.55;1.00;;;;;;;24.43;40.96;100478.05;1697590;82;25850;-82
2022/07/14 10:51:23;;;;;;;3.70;1.25;;;;;;;24.52;41.67;100477.74;1711721;82;26557;-82
2022/07/14 10:54:13;;;;;;;3.02;1.10;;;;;;;24.62;39.96;100480.42;1691122;84;25471;-81
2022/07/14 10:56:41;;;;;;;4.60;1.52;;;;;;;24.60;40.00;100478.52;1686031;84;28317;-82
2022/07/14 10:59:30;;;;;;;5.15;2.42;;;;;;;24.58;38.48;100479.89;1687009;82;26567;-82
2022/07/14 11:05:02;;;;;;;2.87;0.90;;;;;;;24.57;37.90;100474.98;1799250;77;26469;31
2022/07/14 11:07:51;;;;;;;3.30;1.60;;;;;;;24.54;37.90;100476.91;1792813;78;25927;31
2022/07/14 11:10:30;;;;;;;3.10;1.10;;;;;;;24.49;38.32;100477.75;1762330;77;27480;-83
2022/07/14 11:13:09;;;;;;;3.17;1.10;;;;;;;24.52;38.23;100479.11;1826230;78;25916;-83
2022/07/14 11:15:42;;;;;;;4.85;2.33;;;;;;;24.50;38.80;100479.41;1824580;77;25862;-80
2022/07/14 11:18:34;;;;;;;4.78;1.00;;;;;;;24.56;39.21;100472.51;1822033;78;25975;-81
2022/07/14 11:21:18;;;;;;;3.58;1.07;;;;;;;24.61;38.48;100473.33;1817509;77;25795;-83
2022/07/14 11:23:52;;;;;;;2.62;1.02;;;;;;;24.53;38.04;100488.16;1804510;79;27483;-81
2022/07/14 11:26:41;;;;;;;4.83;1.07;;;;;;;24.48;39.20;100478.87;1790839;79;25882;-81
2022/07/14 11:29:09;;;;;;;4.08;1.20;;;;;;;24.49;38.26;100475.01;1799129;79;25845;-82
2022/07/14 11:37:16;;;;;;;4.65;2.33;;;;;;;24.63;39.49;100470.29;1770459;80;27457;-81
2022/07/14 11:39:46;;;;;;;6.33;1.62;;;;;;;24.73;38.84;100472.97;1771999;80;25953;-82
2022/07/14 11:42:16;;;;;;;5.28;1.37;;;;;;;24.81;38.91;100472.39;1769569;80;25743;-81
2022/07/14 11:44:46;;;;;;;2.87;1.20;;;;;;;24.93;38.28;100471.52;1789381;78;26549;-81
2022/07/14 11:47:25;;;;;;;3.90;1.20;;;;;;;24.99;37.16;100469.00;1778668;79;25943;-82
2022/07/14 11:49:56;;;;;;;4.12;0.90;;;;;;;24.98;37.60;100476.40;1778889;78;27442;-82
2022/07/14 11:52:36;;;;;;;5.95;1.25;;;;;;;24.98;37.88;100474.20;1756481;80;25799;-81
2022/07/14 11:55:07;;;;;;;7.03;1.20;;;;;;;25.00;37.78;100481.04;1770416;80;25302;-80
2022/07/14 12:03:43;;;;;;;4.50;1.17;;;;;;;25.24;39.33;100466.06;1765651;77;26772;-80
2022/07/14 12:09:52;;;;;;;3.07;1.20;;;;;;;25.36;37.50;100478.88;1723658;78;26544;-82
2022/07/14 12:12:22;;;;;;;2.22;0.90;;;;;;;25.35;37.62;100467.63;1689845;83;26692;-81